Time;durP1;ratioP1;P1;durP2;ratioP2;P2;SDS_P1;SDS_P2;PMS_P1;PMS_P2;Temp;Humidity;BMP_temperature;BMP_pressure;BME280_temperature;BME280_humidity;BME280_pressure;Samples;Min_cycle;Max_cycle;Signal;HPM_P1;HPM_P2
2023/04/30 00:02:07;;;;;;;13.23;9.63;;;;;;;;;;7372042;19;20383;-70
2023/04/30 00:04:32;;;;;;;12.90;9.15;;;;;;;;;;7373014;19;20026;-70
2023/04/30 00:06:58;;;;;;;17.27;9.98;;;;;;;;;;7391753;19;19999;-69
2023/04/30 00:09:23;;;;;;;15.68;9.38;;;;;;;;;;7372363;19;20078;-69
2023/04/30 00:11:48;;;;;;;18.02;9.70;;;;;;;;;;7371666;19;19999;-69
2023/04/30 00:14:14;;;;;;;13.38;9.13;;;;;;;;;;7381127;19;20002;-70
2023/04/30 00:16:39;;;;;;;14.00;9.60;;;;;;;;;;7384545;19;20023;-70
2023/04/30 00:19:04;;;;;;;14.82;9.63;;;;;;;;;;7405240;19;20029;-69
2023/04/30 00:21:30;;;;;;;16.13;9.95;;;;;;;;;;7371522;19;19995;-69
2023/04/30 00:23:55;;;;;;;17.40;9.82;;;;;;;;;;7374301;19;20002;-69
2023/04/30 00:26:20;;;;;;;13.48;9.50;;;;;;;;;;7372014;19;20010;-70
2023/04/30 00:28:46;;;;;;;12.77;8.77;;;;;;;;;;7371330;19;20006;-69
2023/04/30 00:31:11;;;;;;;13.85;9.35;;;;;;;;;;7390378;19;20411;-69
2023/04/30 00:33:36;;;;;;;16.10;10.15;;;;;;;;;;7369067;19;20009;-70
2023/04/30 00:36:02;;;;;;;15.75;9.90;;;;;;;;;;7371171;19;19999;-71
2023/04/30 00:38:27;;;;;;;17.45;9.50;;;;;;;;;;7369093;19;20080;-70
2023/04/30 00:40:52;;;;;;;14.05;9.65;;;;;;;;;;7370070;19;20002;-70
2023/04/30 00:43:18;;;;;;;15.10;9.65;;;;;;;;;;7391198;19;20007;-70
2023/04/30 00:45:43;;;;;;;17.23;9.93;;;;;;;;;;7370047;19;20366;-70
2023/04/30 00:48:09;;;;;;;17.73;10.02;;;;;;;;;;7367308;19;20394;-70
2023/04/30 00:50:37;;;;;;;15.02;10.27;;;;;;;;;;7369905;19;20100;-70
2023/04/30 00:53:03;;;;;;;14.23;10.15;;;;;;;;;;7369870;19;20002;-70
2023/04/30 00:55:28;;;;;;;18.27;10.35;;;;;;;;;;7373101;19;20087;-71
2023/04/30 00:57:54;;;;;;;18.90;10.18;;;;;;;;;;7387585;19;20005;-69
2023/04/30 01:00:20;;;;;;;16.60;9.70;;;;;;;;;;7369239;19;20003;-70
2023/04/30 01:02:46;;;;;;;17.10;10.02;;;;;;;;;;7368265;19;20058;-70
2023/04/30 01:05:11;;;;;;;15.45;10.10;;;;;;;;;;7370493;19;20023;-70
2023/04/30 01:07:40;;;;;;;16.00;10.27;;;;;;;;;;7367207;19;20002;-70
2023/04/30 01:10:06;;;;;;;16.98;10.40;;;;;;;;;;7392571;19;19999;-70
2023/04/30 01:12:35;;;;;;;15.85;10.25;;;;;;;;;;7369560;19;20489;-70
2023/04/30 01:15:07;;;;;;;14.00;9.18;;;;;;;;;;7368937;19;20003;-70
2023/04/30 01:17:36;;;;;;;18.25;10.68;;;;;;;;;;7367905;19;20023;-70
2023/04/30 01:20:03;;;;;;;12.95;9.73;;;;;;;;;;7370209;19;20022;-70
2023/04/30 01:22:59;;;;;;;16.10;10.27;;;;;;;;;;7373111;19;20018;-71
2023/04/30 01:25:24;;;;;;;16.48;10.00;;;;;;;;;;7370802;19;20465;-71
2023/04/30 01:28:12;;;;;;;15.73;10.43;;;;;;;;;;7387701;19;19999;-70
2023/04/30 01:30:39;;;;;;;16.55;10.35;;;;;;;;;;7367603;19;20292;-70
2023/04/30 01:33:05;;;;;;;14.45;9.90;;;;;;;;;;7380362;19;19999;-70
2023/04/30 01:35:53;;;;;;;16.40;10.50;;;;;;;;;;7391040;19;20615;-70
2023/04/30 01:38:42;;;;;;;14.77;10.13;;;;;;;;;;7376078;19;20062;-70
2023/04/30 01:41:30;;;;;;;15.27;10.70;;;;;;;;;;7372373;19;20002;-70
2023/04/30 01:44:17;;;;;;;16.83;10.85;;;;;;;;;;7372502;19;20007;-70
2023/04/30 01:46:53;;;;;;;17.50;10.50;;;;;;;;;;7369113;19;20003;-70
2023/04/30 01:49:34;;;;;;;18.25;11.07;;;;;;;;;;7392817;19;20019;-69
2023/04/30 01:52:16;;;;;;;18.40;10.93;;;;;;;;;;7366614;19;20003;-70
2023/04/30 01:54:50;;;;;;;15.93;10.68;;;;;;;;;;7367616;19;20015;-70
2023/04/30 01:57:22;;;;;;;16.98;11.48;;;;;;;;;;7365892;19;20006;-70
2023/04/30 01:59:48;;;;;;;15.02;10.75;;;;;;;;;;7368049;19;20136;-70
2023/04/30 02:02:13;;;;;;;18.38;11.70;;;;;;;;;;7367428;19;20374;-70
2023/04/30 02:04:39;;;;;;;22.23;11.82;;;;;;;;;;7370128;19;19998;-70
2023/04/30 02:07:04;;;;;;;14.55;11.07;;;;;;;;;;7387371;19;19999;-70
2023/04/30 02:09:30;;;;;;;17.00;11.35;;;;;;;;;;7368983;19;20458;-70
2023/04/30 02:11:56;;;;;;;19.90;11.77;;;;;;;;;;7367556;19;20073;-69
2023/04/30 02:14:22;;;;;;;19.63;10.95;;;;;;;;;;7368475;19;19999;-69
2023/04/30 02:16:47;;;;;;;20.02;12.30;;;;;;;;;;7368970;19;20035;-69
2023/04/30 02:19:12;;;;;;;16.73;11.00;;;;;;;;;;7393053;19;20003;-69
2023/04/30 02:21:37;;;;;;;17.42;11.63;;;;;;;;;;7366709;19;20003;-69
2023/04/30 02:24:03;;;;;;;19.17;11.55;;;;;;;;;;7367032;19;20099;-70
2023/04/30 02:26:30;;;;;;;17.23;11.75;;;;;;;;;;7366223;19;20678;-68
2023/04/30 02:28:55;;;;;;;17.35;11.77;;;;;;;;;;7368784;19;20038;-69
2023/04/30 02:31:20;;;;;;;18.30;11.00;;;;;;;;;;7390879;19;20473;-68
2023/04/30 02:33:46;;;;;;;17.67;10.98;;;;;;;;;;7368528;19;20028;-69
2023/04/30 02:36:11;;;;;;;17.90;11.02;;;;;;;;;;7370632;19;20052;-69
2023/04/30 02:38:36;;;;;;;17.30;11.13;;;;;;;;;;7369447;19;20027;-69
2023/04/30 02:41:02;;;;;;;17.90;12.15;;;;;;;;;;7369628;19;20006;-69
2023/04/30 02:43:28;;;;;;;18.90;11.68;;;;;;;;;;7367403;19;20457;-71
2023/04/30 02:45:53;;;;;;;15.45;10.23;;;;;;;;;;7392551;19;20062;-68
2023/04/30 02:48:18;;;;;;;18.92;11.68;;;;;;;;;;7371020;19;20003;-69
2023/04/30 02:50:43;;;;;;;17.20;11.27;;;;;;;;;;7368034;19;20135;-69
2023/04/30 02:53:09;;;;;;;18.75;10.98;;;;;;;;;;7367474;19;20003;-69
2023/04/30 02:55:34;;;;;;;19.92;10.93;;;;;;;;;;7367699;19;20020;-69
2023/04/30 02:57:59;;;;;;;16.05;10.75;;;;;;;;;;7388826;19;19998;-69
2023/04/30 03:00:25;;;;;;;17.90;11.88;;;;;;;;;;7366604;19;20003;-69
2023/04/30 03:02:50;;;;;;;16.33;9.60;;;;;;;;;;7367446;19;20001;-69
2023/04/30 03:05:16;;;;;;;23.83;11.05;;;;;;;;;;7368775;19;20353;-68
2023/04/30 03:07:41;;;;;;;19.10;11.48;;;;;;;;;;7370596;19;20027;-68
2023/04/30 03:10:07;;;;;;;17.83;11.57;;;;;;;;;;7394226;19;20005;-68
2023/04/30 03:12:32;;;;;;;17.60;11.18;;;;;;;;;;7377361;19;20013;-68
2023/04/30 03:14:58;;;;;;;18.55;10.95;;;;;;;;;;7375758;19;19999;-69
2023/04/30 03:17:23;;;;;;;17.17;11.18;;;;;;;;;;7372844;19;20067;-69
2023/04/30 03:19:49;;;;;;;21.08;11.02;;;;;;;;;;7374119;19;20013;-69
2023/04/30 03:22:14;;;;;;;18.52;11.77;;;;;;;;;;7394997;19;20467;-69
2023/04/30 03:24:40;;;;;;;18.55;12.02;;;;;;;;;;7372552;19;19999;-69
2023/04/30 03:27:05;;;;;;;19.63;12.30;;;;;;;;;;7370935;19;20020;-69
2023/04/30 03:29:31;;;;;;;24.08;11.65;;;;;;;;;;7373022;19;20007;-69
2023/04/30 03:31:56;;;;;;;20.02;9.77;;;;;;;;;;7370896;19;20415;-69
2023/04/30 03:34:21;;;;;;;18.77;11.65;;;;;;;;;;7393530;19;20617;-69
2023/04/30 03:36:47;;;;;;;20.70;11.93;;;;;;;;;;7371063;19;19999;-69
2023/04/30 03:39:13;;;;;;;20.10;12.52;;;;;;;;;;7372158;19;20029;-69
2023/04/30 03:41:39;;;;;;;21.10;12.45;;;;;;;;;;7372990;19;20005;-69
2023/04/30 03:44:04;;;;;;;19.98;12.10;;;;;;;;;;7371966;19;20006;-69
2023/04/30 03:46:30;;;;;;;20.80;12.90;;;;;;;;;;7370059;19;20406;-70
2023/04/30 03:48:55;;;;;;;21.65;12.50;;;;;;;;;;7393742;19;20002;-69
2023/04/30 03:51:20;;;;;;;15.15;9.18;;;;;;;;;;7370950;19;20423;-69
2023/04/30 03:53:46;;;;;;;18.98;11.80;;;;;;;;;;7372174;19;20506;-69
2023/04/30 03:56:12;;;;;;;21.02;13.52;;;;;;;;;;7371828;19;20003;-69
2023/04/30 03:58:37;;;;;;;21.63;13.32;;;;;;;;;;7371523;19;20255;-69
2023/04/30 04:01:03;;;;;;;23.13;12.60;;;;;;;;;;7393712;19;20086;-69
2023/04/30 04:03:28;;;;;;;20.73;13.43;;;;;;;;;;7374431;19;20007;-69
2023/04/30 04:05:54;;;;;;;20.15;12.82;;;;;;;;;;7371710;19;20011;-69
2023/04/30 04:08:20;;;;;;;21.67;12.18;;;;;;;;;;7368902;19;20002;-69
2023/04/30 04:10:45;;;;;;;22.75;13.88;;;;;;;;;;7373535;19;20049;-69
2023/04/30 04:13:10;;;;;;;21.83;13.35;;;;;;;;;;7393567;19;20005;-69
2023/04/30 04:15:36;;;;;;;19.92;12.75;;;;;;;;;;7370871;19;20353;-69
2023/04/30 04:18:02;;;;;;;20.40;13.35;;;;;;;;;;7373004;19;20005;-69
2023/04/30 04:20:28;;;;;;;19.02;11.48;;;;;;;;;;7370865;19;20027;-69
2023/04/30 04:22:54;;;;;;;22.50;13.75;;;;;;;;;;7367773;19;19998;-69
2023/04/30 04:25:19;;;;;;;21.05;13.68;;;;;;;;;;7393590;19;20046;-69
2023/04/30 04:27:44;;;;;;;22.58;13.40;;;;;;;;;;7367386;19;19999;-69
2023/04/30 04:30:10;;;;;;;23.38;13.48;;;;;;;;;;7370654;19;20477;-69
2023/04/30 04:32:45;;;;;;;24.95;14.48;;;;;;;;;;7382300;19;20405;-69
2023/04/30 04:35:11;;;;;;;21.25;13.48;;;;;;;;;;7386465;19;20003;-69
2023/04/30 04:37:37;;;;;;;15.35;8.75;;;;;;;;;;7379739;19;19994;-69
2023/04/30 04:40:04;;;;;;;24.02;13.20;;;;;;;;;;7391930;19;19991;-69
2023/04/30 04:42:29;;;;;;;22.50;13.77;;;;;;;;;;7370494;19;20003;-69
2023/04/30 04:44:55;;;;;;;22.30;13.60;;;;;;;;;;7370613;19;20081;-69
2023/04/30 04:47:20;;;;;;;21.45;13.50;;;;;;;;;;7370266;19;20006;-69
2023/04/30 04:49:45;;;;;;;16.98;10.50;;;;;;;;;;7371053;19;19998;-69
2023/04/30 04:52:11;;;;;;;22.83;12.77;;;;;;;;;;7390623;19;19990;-69
2023/04/30 04:54:36;;;;;;;20.88;13.65;;;;;;;;;;7370411;19;20006;-69
2023/04/30 04:57:01;;;;;;;22.65;13.52;;;;;;;;;;7371327;19;20002;-69
2023/04/30 04:59:27;;;;;;;21.50;13.10;;;;;;;;;;7370847;19;20532;-69
2023/04/30 05:01:53;;;;;;;22.83;12.70;;;;;;;;;;7369779;19;20464;-69
2023/04/30 05:04:18;;;;;;;21.00;13.43;;;;;;;;;;7394975;19;20096;-70
2023/04/30 05:06:43;;;;;;;19.15;10.90;;;;;;;;;;7374504;19;20448;-69
2023/04/30 05:09:09;;;;;;;19.38;11.68;;;;;;;;;;7372464;19;20372;-69
2023/04/30 05:11:35;;;;;;;18.67;12.77;;;;;;;;;;7369562;19;20540;-69
2023/04/30 05:14:00;;;;;;;21.58;11.23;;;;;;;;;;7371191;19;20019;-69
2023/04/30 05:16:25;;;;;;;20.10;10.90;;;;;;;;;;7372877;19;20010;-70
2023/04/30 05:18:51;;;;;;;18.33;10.45;;;;;;;;;;7391900;19;20002;-69
2023/04/30 05:21:16;;;;;;;19.85;11.35;;;;;;;;;;7371259;19;20010;-69
2023/04/30 05:23:42;;;;;;;18.88;10.80;;;;;;;;;;7372931;19;20018;-68
2023/04/30 05:26:07;;;;;;;17.17;11.05;;;;;;;;;;7372889;19;20027;-68
2023/04/30 05:28:33;;;;;;;20.58;11.50;;;;;;;;;;7371492;19;19995;-69
2023/04/30 05:30:58;;;;;;;18.90;11.60;;;;;;;;;;7391009;19;20346;-69
2023/04/30 05:33:24;;;;;;;19.73;11.48;;;;;;;;;;7371674;19;20023;-69
2023/04/30 05:35:49;;;;;;;16.25;10.70;;;;;;;;;;7373454;19;20009;-69
2023/04/30 05:38:14;;;;;;;15.95;10.23;;;;;;;;;;7377689;19;20351;-69
2023/04/30 05:40:39;;;;;;;15.13;9.10;;;;;;;;;;7376687;19;19999;-69
2023/04/30 05:43:05;;;;;;;17.27;9.07;;;;;;;;;;7393111;19;20352;-69
2023/04/30 05:45:30;;;;;;;13.95;8.70;;;;;;;;;;7382434;19;20009;-69
2023/04/30 05:47:55;;;;;;;14.80;9.75;;;;;;;;;;7370808;19;19999;-69
2023/04/30 05:50:21;;;;;;;19.80;10.05;;;;;;;;;;7368836;19;20003;-69
2023/04/30 05:52:46;;;;;;;15.23;9.15;;;;;;;;;;7365802;19;20480;-69
2023/04/30 05:55:12;;;;;;;16.90;9.50;;;;;;;;;;7391994;19;19994;-70
2023/04/30 05:57:37;;;;;;;12.57;8.20;;;;;;;;;;7365358;19;19998;-69
2023/04/30 06:00:05;;;;;;;12.48;8.18;;;;;;;;;;7368582;19;20016;-69
2023/04/30 06:02:31;;;;;;;15.88;7.82;;;;;;;;;;7372551;19;20032;-69
2023/04/30 06:04:56;;;;;;;11.02;7.80;;;;;;;;;;7375238;19;20010;-69
2023/04/30 06:07:21;;;;;;;12.90;7.85;;;;;;;;;;7391127;19;19999;-69
2023/04/30 06:09:47;;;;;;;12.13;7.82;;;;;;;;;;7371028;19;20006;-69
2023/04/30 06:12:12;;;;;;;10.50;6.25;;;;;;;;;;7367671;19;20005;-69
2023/04/30 06:14:38;;;;;;;13.00;7.00;;;;;;;;;;7369233;19;20502;-69
2023/04/30 06:17:03;;;;;;;9.73;7.15;;;;;;;;;;7366450;19;20010;-69
2023/04/30 06:19:29;;;;;;;11.27;6.60;;;;;;;;;;7366955;19;19998;-70
2023/04/30 06:21:54;;;;;;;8.30;5.82;;;;;;;;;;7388664;19;20398;-69
2023/04/30 06:24:19;;;;;;;12.80;7.50;;;;;;;;;;7366875;19;20524;-69
2023/04/30 06:26:45;;;;;;;10.63;6.18;;;;;;;;;;7365955;19;20014;-69
2023/04/30 06:29:10;;;;;;;12.18;7.53;;;;;;;;;;7367074;19;20002;-70
2023/04/30 06:31:35;;;;;;;11.25;7.38;;;;;;;;;;7367446;19;20377;-70
2023/04/30 06:34:01;;;;;;;12.20;7.45;;;;;;;;;;7388145;19;20003;-69
2023/04/30 06:36:26;;;;;;;11.65;6.82;;;;;;;;;;7366065;19;19999;-69
2023/04/30 06:38:51;;;;;;;11.30;6.57;;;;;;;;;;7368381;19;20496;-70
2023/04/30 06:41:18;;;;;;;6.82;4.35;;;;;;;;;;7366900;19;20010;-70
2023/04/30 06:43:43;;;;;;;11.82;6.60;;;;;;;;;;7366342;19;20668;-70
2023/04/30 06:46:09;;;;;;;11.15;6.57;;;;;;;;;;7384839;19;19999;-69
2023/04/30 06:48:34;;;;;;;13.57;6.68;;;;;;;;;;7365270;19;20023;-69
2023/04/30 06:50:59;;;;;;;11.23;6.43;;;;;;;;;;7365668;19;20003;-69
2023/04/30 06:53:25;;;;;;;8.60;5.15;;;;;;;;;;7365690;19;19999;-70
2023/04/30 06:55:51;;;;;;;9.93;6.55;;;;;;;;;;7370665;19;20024;-69
2023/04/30 06:58:17;;;;;;;6.90;4.82;;;;;;;;;;7398454;19;20003;-69
2023/04/30 07:00:43;;;;;;;10.73;6.35;;;;;;;;;;7373284;19;20027;-69
2023/04/30 07:03:08;;;;;;;10.43;5.93;;;;;;;;;;7366655;19;19999;-69
2023/04/30 07:05:33;;;;;;;10.15;5.70;;;;;;;;;;7368207;19;20002;-69
2023/04/30 07:08:03;;;;;;;11.55;5.50;;;;;;;;;;7364877;19;20472;-70
2023/04/30 07:10:30;;;;;;;8.75;5.63;;;;;;;;;;7371822;19;20547;-69
2023/04/30 07:12:55;;;;;;;9.05;5.30;;;;;;;;;;7388496;19;20019;-68
2023/04/30 07:15:20;;;;;;;9.07;4.25;;;;;;;;;;7364647;19;20002;-69
2023/04/30 07:17:46;;;;;;;10.27;5.43;;;;;;;;;;7364686;19;19994;-70
2023/04/30 07:20:13;;;;;;;8.27;5.10;;;;;;;;;;7365926;19;20023;-69
2023/04/30 07:22:39;;;;;;;6.97;4.38;;;;;;;;;;7366013;19;20031;-70
2023/04/30 07:25:05;;;;;;;7.90;4.88;;;;;;;;;;7387600;19;20003;-70
2023/04/30 07:27:30;;;;;;;11.00;5.20;;;;;;;;;;7364348;19;20014;-69
2023/04/30 07:29:55;;;;;;;8.07;5.05;;;;;;;;;;7366263;19;20007;-70
2023/04/30 07:32:21;;;;;;;9.10;5.50;;;;;;;;;;7366985;19;20361;-70
2023/04/30 07:34:47;;;;;;;9.52;4.47;;;;;;;;;;7370381;19;20014;-70
2023/04/30 07:37:12;;;;;;;11.05;5.40;;;;;;;;;;7391793;19;20003;-70
2023/04/30 07:39:38;;;;;;;9.82;4.35;;;;;;;;;;7368300;19;20104;-69
2023/04/30 07:42:04;;;;;;;9.48;5.28;;;;;;;;;;7365764;19;20358;-69
2023/04/30 07:44:30;;;;;;;8.90;5.10;;;;;;;;;;7366493;19;20006;-69
2023/04/30 07:46:55;;;;;;;7.53;4.90;;;;;;;;;;7368442;19;20006;-69
2023/04/30 07:49:21;;;;;;;6.72;4.32;;;;;;;;;;7386793;19;20033;-69
2023/04/30 07:51:46;;;;;;;10.65;5.05;;;;;;;;;;7365546;19;20476;-70
2023/04/30 07:54:12;;;;;;;10.90;4.85;;;;;;;;;;7368089;19;20058;-69
2023/04/30 07:56:38;;;;;;;8.45;4.63;;;;;;;;;;7366044;19;20070;-69
2023/04/30 07:59:03;;;;;;;8.57;4.78;;;;;;;;;;7370765;19;20010;-69
2023/04/30 08:01:29;;;;;;;9.10;4.50;;;;;;;;;;7372140;19;20023;-70
2023/04/30 08:03:54;;;;;;;7.97;5.00;;;;;;;;;;7394058;19;20003;-69
2023/04/30 08:06:20;;;;;;;8.15;4.45;;;;;;;;;;7371645;19;20010;-69
2023/04/30 08:08:46;;;;;;;5.85;3.45;;;;;;;;;;7372217;19;20348;-69
2023/04/30 08:11:11;;;;;;;7.20;4.50;;;;;;;;;;7378501;19;20006;-70
2023/04/30 08:13:37;;;;;;;8.63;4.60;;;;;;;;;;7376362;19;20002;-69
2023/04/30 08:16:02;;;;;;;5.70;3.28;;;;;;;;;;7398139;19;20002;-69
2023/04/30 08:18:28;;;;;;;8.00;4.40;;;;;;;;;;7375005;19;20095;-69
2023/04/30 08:20:54;;;;;;;7.18;4.20;;;;;;;;;;7373214;19;20003;-70
2023/04/30 08:23:19;;;;;;;7.78;3.72;;;;;;;;;;7373655;19;20010;-69
2023/04/30 08:25:44;;;;;;;6.07;3.60;;;;;;;;;;7373194;19;20077;-70
2023/04/30 08:28:10;;;;;;;7.43;4.00;;;;;;;;;;7393383;19;19998;-69
2023/04/30 08:30:35;;;;;;;5.90;3.80;;;;;;;;;;7371994;19;20579;-68
2023/04/30 08:33:00;;;;;;;6.45;3.75;;;;;;;;;;7372328;19;20419;-70
2023/04/30 08:35:28;;;;;;;5.07;3.28;;;;;;;;;;7374834;19;20472;-69
2023/04/30 08:37:54;;;;;;;6.40;3.80;;;;;;;;;;7369464;19;20013;-70
2023/04/30 08:40:19;;;;;;;9.05;3.97;;;;;;;;;;7392741;19;19999;-70
2023/04/30 08:42:52;;;;;;;6.72;4.18;;;;;;;;;;7371792;19;20065;-70
2023/04/30 08:45:18;;;;;;;7.50;3.95;;;;;;;;;;7372486;19;20006;-70
2023/04/30 08:47:44;;;;;;;6.80;3.72;;;;;;;;;;7371591;19;20074;-70
2023/04/30 08:50:10;;;;;;;7.45;3.70;;;;;;;;;;7374091;19;20014;-70
2023/04/30 08:52:36;;;;;;;6.03;3.60;;;;;;;;;;7377032;19;20092;-70
2023/04/30 08:55:06;;;;;;;6.63;3.40;;;;;;;;;;7401355;19;19994;-70
2023/04/30 08:57:31;;;;;;;2.42;1.92;;;;;;;;;;7378200;19;20010;-70
2023/04/30 08:59:57;;;;;;;5.75;3.30;;;;;;;;;;7370726;19;20009;-70
2023/04/30 09:02:22;;;;;;;5.88;3.35;;;;;;;;;;7371118;19;20093;-69
2023/04/30 09:04:48;;;;;;;6.97;3.30;;;;;;;;;;7371093;19;20010;-71
2023/04/30 09:07:14;;;;;;;4.97;2.80;;;;;;;;;;7393830;19;20019;-68
2023/04/30 09:09:40;;;;;;;5.88;3.25;;;;;;;;;;7369567;19;20006;-69
2023/04/30 09:12:14;;;;;;;6.38;2.97;;;;;;;;;;7368918;19;20350;-69
2023/04/30 09:14:41;;;;;;;5.95;2.60;;;;;;;;;;7370193;19;20045;-69
2023/04/30 09:17:07;;;;;;;4.65;2.92;;;;;;;;;;7370199;19;20007;-69
2023/04/30 09:19:33;;;;;;;5.65;2.88;;;;;;;;;;7370304;19;20013;-68
2023/04/30 09:21:58;;;;;;;7.97;3.15;;;;;;;;;;7391180;19;20006;-68
2023/04/30 09:24:24;;;;;;;4.05;2.65;;;;;;;;;;7370172;19;20007;-69
2023/04/30 09:26:50;;;;;;;7.82;3.65;;;;;;;;;;7369487;19;20034;-68
2023/04/30 09:29:15;;;;;;;4.20;2.47;;;;;;;;;;7370934;19;20011;-70
2023/04/30 09:31:47;;;;;;;5.80;2.75;;;;;;;;;;7376165;19;20498;-70
2023/04/30 09:34:13;;;;;;;4.40;2.80;;;;;;;;;;7402004;19;20043;-70
2023/04/30 09:36:55;;;;;;;6.13;2.40;;;;;;;;;;7383134;19;20036;-70
2023/04/30 09:39:21;;;;;;;5.15;2.42;;;;;;;;;;7373659;19;20043;-69
2023/04/30 09:41:46;;;;;;;4.50;2.53;;;;;;;;;;7373063;19;20489;-69
2023/04/30 09:44:36;;;;;;;3.40;1.90;;;;;;;;;;7373915;19;20042;-70
2023/04/30 09:47:02;;;;;;;5.50;2.60;;;;;;;;;;7376840;19;20081;-70
2023/04/30 09:49:27;;;;;;;6.50;2.63;;;;;;;;;;7370336;19;20452;-70
2023/04/30 09:51:55;;;;;;;3.95;2.50;;;;;;;;;;7389241;19;20294;-70
2023/04/30 09:54:28;;;;;;;5.03;2.55;;;;;;;;;;7368893;19;20029;-70
2023/04/30 09:56:56;;;;;;;4.53;2.22;;;;;;;;;;7370426;19;20003;-70
2023/04/30 09:59:26;;;;;;;5.78;2.40;;;;;;;;;;7370427;19;20002;-70
2023/04/30 10:01:52;;;;;;;11.43;5.78;;;;;;;;;;7369663;19;20006;-70
2023/04/30 10:04:19;;;;;;;27.98;16.80;;;;;;;;;;7391215;19;20023;-71
2023/04/30 10:06:45;;;;;;;21.92;13.60;;;;;;;;;;7366305;19;20010;-70
2023/04/30 10:09:14;;;;;;;43.15;17.45;;;;;;;;;;7368198;19;20003;-69
2023/04/30 10:11:41;;;;;;;25.27;12.20;;;;;;;;;;7367160;19;20010;-69
2023/04/30 10:14:10;;;;;;;10.43;7.13;;;;;;;;;;7368335;19;20412;-69
2023/04/30 10:16:36;;;;;;;6.72;3.22;;;;;;;;;;7367002;19;20003;-70
2023/04/30 10:19:19;;;;;;;10.68;6.57;;;;;;;;;;7388386;19;20017;-69
2023/04/30 10:21:46;;;;;;;6.90;3.45;;;;;;;;;;7366540;19;20002;-70
2023/04/30 10:24:17;;;;;;;13.95;8.57;;;;;;;;;;7366880;19;20560;-70
2023/04/30 10:26:43;;;;;;;6.80;3.78;;;;;;;;;;7366099;19;20359;-71
2023/04/30 10:29:08;;;;;;;10.73;4.30;;;;;;;;;;7367123;19;19998;-70
2023/04/30 10:31:35;;;;;;;4.10;2.08;;;;;;;;;;7370153;19;20027;-70
2023/04/30 10:34:17;;;;;;;2.63;1.88;;;;;;;;;;7387762;19;20020;-70
2023/04/30 10:36:49;;;;;;;2.72;1.90;;;;;;;;;;7364620;19;20006;-70
2023/04/30 10:39:19;;;;;;;3.40;1.83;;;;;;;;;;7366188;19;20062;-69
2023/04/30 10:41:45;;;;;;;5.80;2.33;;;;;;;;;;7367538;19;20372;-69
2023/04/30 10:44:11;;;;;;;3.25;1.98;;;;;;;;;;7369398;19;20002;-69
2023/04/30 10:46:37;;;;;;;4.78;2.15;;;;;;;;;;7365282;19;20044;-70
2023/04/30 10:49:02;;;;;;;4.28;2.08;;;;;;;;;;7387649;19;20002;-69
2023/04/30 10:51:48;;;;;;;5.97;2.00;;;;;;;;;;7364761;19;20469;-69
2023/04/30 10:54:16;;;;;;;4.32;1.60;;;;;;;;;;7365948;19;20002;-69
2023/04/30 10:56:43;;;;;;;3.15;1.90;;;;;;;;;;7364809;19;20003;-69
2023/04/30 10:59:09;;;;;;;4.13;2.08;;;;;;;;;;7366919;19;20006;-68
2023/04/30 11:01:55;;;;;;;3.33;1.70;;;;;;;;;;7366056;19;20002;-69
2023/04/30 11:04:20;;;;;;;6.97;2.47;;;;;;;;;;7388705;19;19994;-69
2023/04/30 11:06:55;;;;;;;2.83;1.80;;;;;;;;;;7368320;19;20080;-69
2023/04/30 11:09:40;;;;;;;3.75;1.90;;;;;;;;;;7365811;19;20028;-69
2023/04/30 11:12:19;;;;;;;4.28;2.00;;;;;;;;;;7367660;19;20006;-69
2023/04/30 11:14:45;;;;;;;5.30;2.25;;;;;;;;;;7366189;19;20533;-69
2023/04/30 11:17:21;;;;;;;4.72;2.40;;;;;;;;;;7367819;19;20006;-69
2023/04/30 11:19:50;;;;;;;3.60;1.90;;;;;;;;;;7367009;19;20006;-69
2023/04/30 11:22:22;;;;;;;4.72;2.28;;;;;;;;;;7388261;19;20054;-68
2023/04/30 11:25:12;;;;;;;4.00;2.20;;;;;;;;;;7366757;19;20015;-68
2023/04/30 11:27:43;;;;;;;5.20;2.15;;;;;;;;;;7364527;19;20083;-69
2023/04/30 11:30:14;;;;;;;5.85;2.20;;;;;;;;;;7365805;19;20464;-70
2023/04/30 11:32:43;;;;;;;3.38;2.10;;;;;;;;;;7368088;19;20073;-69
2023/04/30 11:35:09;;;;;;;2.65;1.63;;;;;;;;;;7372794;19;20003;-69
2023/04/30 11:37:37;;;;;;;4.68;2.10;;;;;;;;;;7373254;19;20567;-70
2023/04/30 11:40:06;;;;;;;5.07;2.20;;;;;;;;;;7405332;19;20005;-69
2023/04/30 11:42:33;;;;;;;3.80;1.92;;;;;;;;;;7378198;19;20006;-69
2023/04/30 11:45:06;;;;;;;3.92;2.10;;;;;;;;;;7376702;19;20940;-69
2023/04/30 11:47:43;;;;;;;2.03;1.60;;;;;;;;;;7371648;19;20507;-69
2023/04/30 11:50:10;;;;;;;6.45;1.98;;;;;;;;;;7373270;19;20039;-69
2023/04/30 11:52:36;;;;;;;3.20;1.80;;;;;;;;;;7371761;19;20074;-69
2023/04/30 11:55:23;;;;;;;4.38;1.90;;;;;;;;;;7394798;19;20019;-69
2023/04/30 11:57:50;;;;;;;5.30;1.70;;;;;;;;;;7369630;19;20019;-69
2023/04/30 12:00:24;;;;;;;4.03;1.70;;;;;;;;;;7372412;19;20003;-69
2023/04/30 12:02:49;;;;;;;3.80;1.65;;;;;;;;;;7372254;19;20006;-70
2023/04/30 12:05:19;;;;;;;3.67;1.70;;;;;;;;;;7376293;19;20006;-69
2023/04/30 12:07:49;;;;;;;3.50;1.63;;;;;;;;;;7371914;19;20456;-70
2023/04/30 12:10:15;;;;;;;3.08;1.60;;;;;;;;;;7398782;19;20412;-69
2023/04/30 12:12:42;;;;;;;3.65;1.77;;;;;;;;;;7371794;19;20029;-70
2023/04/30 12:15:18;;;;;;;2.55;1.70;;;;;;;;;;7373694;19;20003;-69
2023/04/30 12:17:45;;;;;;;3.58;1.80;;;;;;;;;;7370884;19;20009;-69
2023/04/30 12:20:13;;;;;;;2.13;1.60;;;;;;;;;;7372395;19;20007;-70
2023/04/30 12:22:40;;;;;;;2.80;1.40;;;;;;;;;;7371962;19;20023;-70
2023/04/30 12:25:13;;;;;;;1.77;1.35;;;;;;;;;;7393006;19;20007;-69
2023/04/30 12:27:40;;;;;;;2.60;1.60;;;;;;;;;;7374086;19;20467;-69
2023/04/30 12:30:08;;;;;;;3.08;1.67;;;;;;;;;;7371302;19;20561;-70
2023/04/30 12:32:41;;;;;;;2.85;1.50;;;;;;;;;;7371017;19;20552;-69
2023/04/30 12:35:08;;;;;;;1.73;1.40;;;;;;;;;;7371810;19;20017;-70
2023/04/30 12:37:34;;;;;;;2.83;1.50;;;;;;;;;;7372400;19;20398;-70
2023/04/30 12:39:59;;;;;;;2.00;1.40;;;;;;;;;;7391731;19;20002;-69
2023/04/30 12:42:31;;;;;;;1.50;1.40;;;;;;;;;;7370343;19;20031;-69
2023/04/30 12:44:57;;;;;;;2.25;1.30;;;;;;;;;;7367477;19;20010;-69
2023/04/30 12:47:24;;;;;;;3.47;1.38;;;;;;;;;;7369461;19;20425;-69
2023/04/30 12:49:49;;;;;;;4.90;1.33;;;;;;;;;;7369385;19;20519;-69
2023/04/30 12:52:14;;;;;;;3.00;1.42;;;;;;;;;;7390519;19;20002;-69
2023/04/30 12:54:40;;;;;;;2.15;1.30;;;;;;;;;;7371503;19;20003;-70
2023/04/30 12:57:11;;;;;;;1.50;1.00;;;;;;;;;;7369668;19;20017;-69
2023/04/30 12:59:38;;;;;;;1.38;1.02;;;;;;;;;;7371638;19;20505;-69
2023/04/30 13:02:11;;;;;;;1.60;1.10;;;;;;;;;;7373061;19;20032;-69
2023/04/30 13:04:37;;;;;;;1.55;1.23;;;;;;;;;;7384368;19;20074;-69
2023/04/30 13:07:03;;;;;;;2.45;1.30;;;;;;;;;;7400360;19;20453;-69
2023/04/30 13:09:30;;;;;;;2.65;1.20;;;;;;;;;;7374992;19;19999;-69
2023/04/30 13:11:56;;;;;;;1.00;0.98;;;;;;;;;;7370858;19;20449;-69
2023/04/30 13:14:21;;;;;;;1.10;1.10;;;;;;;;;;7370778;19;20013;-68
2023/04/30 13:16:46;;;;;;;1.20;1.10;;;;;;;;;;7369280;19;20440;-69
2023/04/30 13:19:12;;;;;;;2.65;1.20;;;;;;;;;;7390692;19;20090;-69
2023/04/30 13:21:37;;;;;;;2.60;1.20;;;;;;;;;;7368954;19;20413;-69
2023/04/30 13:24:02;;;;;;;1.92;1.20;;;;;;;;;;7371174;19;20495;-68
2023/04/30 13:26:28;;;;;;;1.75;1.10;;;;;;;;;;7371715;19;20010;-69
2023/04/30 13:28:54;;;;;;;1.73;1.10;;;;;;;;;;7378787;19;20011;-68
2023/04/30 13:31:19;;;;;;;0.88;0.85;;;;;;;;;;7397369;19;19999;-68
2023/04/30 13:33:45;;;;;;;1.63;1.20;;;;;;;;;;7382150;19;20010;-70
2023/04/30 13:36:10;;;;;;;2.35;1.00;;;;;;;;;;7375368;19;20007;-70
2023/04/30 13:38:38;;;;;;;1.10;1.00;;;;;;;;;;7368783;19;20308;-69
2023/04/30 13:41:03;;;;;;;2.50;1.20;;;;;;;;;;7370004;19;20002;-68
2023/04/30 13:43:29;;;;;;;1.13;1.05;;;;;;;;;;7369965;19;20006;-71
2023/04/30 13:45:54;;;;;;;1.85;1.00;;;;;;;;;;7392906;19;20066;-69
2023/04/30 13:48:19;;;;;;;3.38;1.02;;;;;;;;;;7368468;19;20424;-68
2023/04/30 13:50:45;;;;;;;1.02;1.00;;;;;;;;;;7368897;19;20283;-68
2023/04/30 13:53:10;;;;;;;2.20;1.00;;;;;;;;;;7369511;19;20006;-68
2023/04/30 13:55:35;;;;;;;1.38;1.17;;;;;;;;;;7367758;19;20590;-69
2023/04/30 13:58:01;;;;;;;1.95;1.00;;;;;;;;;;7387122;19;20003;-68
2023/04/30 14:00:26;;;;;;;1.42;1.02;;;;;;;;;;7373344;19;20018;-68
2023/04/30 14:02:52;;;;;;;2.20;1.20;;;;;;;;;;7368996;19;20309;-69
2023/04/30 14:05:17;;;;;;;1.02;0.93;;;;;;;;;;7370253;19;20013;-69
2023/04/30 14:07:43;;;;;;;1.27;1.00;;;;;;;;;;7369398;19;20008;-69
2023/04/30 14:10:08;;;;;;;2.47;1.20;;;;;;;;;;7392548;19;20284;-69
2023/04/30 14:12:34;;;;;;;1.27;1.15;;;;;;;;;;7365873;19;20010;-69
2023/04/30 14:14:59;;;;;;;1.63;1.20;;;;;;;;;;7367905;19;20410;-69
2023/04/30 14:17:28;;;;;;;1.55;1.10;;;;;;;;;;7366888;19;20007;-69
2023/04/30 14:19:54;;;;;;;1.23;1.10;;;;;;;;;;7368804;19;20021;-69
2023/04/30 14:22:20;;;;;;;3.35;1.20;;;;;;;;;;7389112;19;20061;-68
2023/04/30 14:24:45;;;;;;;1.42;1.10;;;;;;;;;;7367313;19;20449;-69
2023/04/30 14:27:10;;;;;;;3.42;1.27;;;;;;;;;;7368297;19;20101;-68
2023/04/30 14:29:36;;;;;;;2.55;1.15;;;;;;;;;;7369255;19;20011;-69
2023/04/30 14:32:04;;;;;;;1.25;1.00;;;;;;;;;;7366877;19;20418;-69